Whitleys Peak, Santa Catalina Island Weather observations

Data are for 10 minute period ending at time listed.
 Day   Time   Solar   Ave.   Ave.  Ave.  Vector    Max.   Stn.    Total
  of    of     Rad.   Air    Rel.  Wind   Wind     Wind   Baro.  Precip.
Year   Day            Temp.  Hum.  Speed  Dir.     Gust   Pres.         
2015   (PST)   W/m2    F      %     mph   deg.      mph    mb.     in.  
------------------------------------------------------------------------
 209    7:40  174.0    62   92.4     4     42.7     6.6    999.0   0.00  
 209    7:50  173.0    62   91.6     5     45.6     6.6    999.0   0.00  
 209    8:00  214.0    62   91.0     4     27.9     6.6    999.0   0.00  
 209    8:10  271.0    63   89.0     6     53.8     9.6    999.0   0.00  
 209    8:20  296.0    62   90.7     6     72.3     9.6    999.0   0.00  
 209    8:30  467.0    64   88.1     4     62.7     8.4    999.0   0.00  
 209    8:40  547.0    68   79.4     3     17.2     6.0    999.0   0.00  
 209    8:50  566.0    68   78.5     4     19.6     6.0    999.0   0.00  
 209    9:00  592.0    68   77.2     6     57.7     9.0    999.0   0.00  
 209    9:10  618.0    68   77.2     7     61.2     9.6    999.0   0.00  
 209    9:20  642.0    66   81.5     7     72.4    10.2    999.0   0.00  
 209    9:30  666.0    69   75.3     6     45.0     9.0    999.0   0.00  
 209    9:40  689.0    70   73.2     5     37.2     9.0    999.0   0.00  
 209    9:50  711.0    69   75.8     5     27.2     9.0    999.0   0.00  
 209   10:00  731.0    69   74.9     7     53.8     9.6    999.0   0.00  
 209   10:10  751.0    70   73.5     6     46.1     9.6    999.0   0.00  
 209   10:20  767.0    69   75.6     6     28.7     8.4    999.0   0.00  
 209   10:30  783.0    68   76.9     5     47.2    10.2    999.0   0.00  
 209   10:40  801.0    70   72.6     4     31.4     7.2    999.0   0.00  
 209   10:50  815.0    70   73.5     4     41.8     8.4    999.0   0.00  
 209   11:00  652.0    71   71.6     4     47.4     7.8    999.0   0.00  
 209   11:10  588.0    70   72.6     5     23.0     7.8    999.0   0.00  
 209   11:20  847.0    69   75.2     5     17.7     8.4    999.0   0.00  
 209   11:30  855.0    69   74.8     5     10.9     8.4    999.0   0.00  
 209   11:40  861.0    70   74.8     5      8.2     8.4    999.0   0.00  
 209   11:50  867.0    70   74.4     5     37.8     7.8    999.0   0.00  
 209   12:00  872.0    72   70.1     4      7.9     7.2    999.0   0.00  
 209   12:10  875.0    72   69.7     4     17.8     7.2    999.0   0.00  
 209   12:20  876.0    74   65.5     5     31.8    10.2    999.0   0.00  
 209   12:30  876.0    77   60.8     4     33.5     6.6    999.0   0.00  
 209   12:40  874.0    77   60.5     5     26.9     7.8    999.0   0.00  
 209   12:50  870.0    78   58.4     5     37.5     8.4    999.0   0.00  
 209   13:00  867.0    78   58.0     5     46.2     7.2    999.0   0.00  
 209   13:10  861.0    75   62.1     6     72.4     9.0    999.0   0.00  
 209   13:20  851.0    73   64.6     6     73.6     9.0    999.0   0.00  
 209   13:30  842.0    74   63.5     5     66.8     8.4    999.0   0.00  
 209   13:40  831.0    73   65.4     6     63.0     9.0    999.0   0.00  
 209   13:50  819.0    74   64.9     5     55.3     8.4    999.0   0.00  
 209   14:00  805.0    73   67.6     7     70.1     9.0    999.0   0.00  
 209   14:10  789.0    71   73.1     7    109.3    10.2    999.0   0.00  
 209   14:20  774.0    71   72.9     5    122.0     7.8    999.0   0.00  
 209   14:30  758.0    73   70.1     5    105.5     7.8    999.0   0.00  
 209   14:40  739.0    73   71.6     4    114.5     7.8    999.0   0.00  
 209   14:50  719.0    72   73.4     5    106.7     8.4    999.0   0.00  
 209   15:00  695.0    72   74.0     5    129.2     7.2    999.0   0.00  
 209   15:10  671.0    72   72.7     5    123.3     8.4    999.0   0.00  
 209   15:20  646.0    72   72.9     5    121.1    10.8    999.0   0.00  
 209   15:30  620.0    74   69.7     4    151.5    11.9    999.0   0.00  
 209   15:40  594.0    74   68.4     4     96.5     7.8    999.0   0.00  
 209   15:50  568.0    74   67.8     4     38.9     6.6    999.0   0.00  
 209   16:00  541.0    76   64.9     4    343.0     6.6    999.0   0.00  
 209   16:10  513.0    76   63.9     4    317.8     7.2    999.0   0.00  
 209   16:20  481.0    75   66.3     4    201.0    13.1    999.0   0.00  
 209   16:30  453.0    76   64.3     5    254.8     7.8    999.0   0.00  
 209   16:40  424.0    75   64.6     6    270.3     9.0    999.0   0.00  
 209   16:50  392.0    74   66.5     7    264.1    10.2    999.0   0.00  
 209   17:00  362.0    74   65.6     7    252.9    11.9    999.0   0.00  
 209   17:10  331.0    73   67.1     7    242.6     9.0    999.0   0.00  
 209   17:20  298.0    72   67.8     6    248.6     9.0    999.0   0.00  
 209   17:30  266.0    72   69.3     8    245.2    11.3    999.0   0.00  
 209   17:40  233.0    71   70.9     9    244.5    12.5    999.0   0.00  
 209   17:50  201.0    70   71.6    10    239.7    12.5    999.0   0.00  
 209   18:00  170.0    70   71.6     8    230.9    10.2    999.0   0.00  
 209   18:10  139.0    69   73.4     9    229.0    10.2    999.0   0.00  
 209   18:20  110.0    68   75.9    10    229.7    11.3    999.0   0.00  
 209   18:30   80.0    67   78.9     8    225.6    10.2    999.0   0.00  
 209   18:40   47.0    66   81.3     6    214.3     7.8    999.0   0.00  
 209   18:50   24.0    65   84.7     7    193.4     9.0    999.0   0.00  
 209   19:00    8.0    64   87.5     8    199.0    10.2    999.0   0.00  
 209   19:10    2.0    63   89.8     7    199.5     9.0    999.0   0.00  
 209   19:20    0.0    62   91.1     7    192.0     9.6    999.0   0.00  
 209   19:30    0.0    62   92.4     8    190.6    10.2    999.0   0.00  
 209   19:40    0.0    61   93.9     8    192.8     9.6    999.0   0.00  
 209   19:50    0.0    62   91.2     4    169.8     7.2    999.0   0.00  
 209   20:00    0.0    62   91.5     4    172.5     7.2    999.0   0.00  
 209   20:10    0.0    62   93.0     5    177.6     7.8    999.0   0.00  
 209   20:20    0.0    61   95.5     6    186.7     9.0    999.0   0.00  
 209   20:30    0.0    60   96.5     7    185.0    11.3    999.0   0.00  
 209   20:40    0.0    61   97.0     6    150.5     9.0    999.0   0.00  
 209   20:50    0.0    62   95.2     6    132.6     6.6    999.0   0.00  
 209   21:00    0.0    63   92.7     7    119.1     7.8    999.0   0.00  
 209   21:10    0.0    63   90.6     6    118.6     7.2    999.0   0.00  
 209   21:20    0.0    65   85.8     5    117.9     6.6    999.0   0.00  
 209   21:30    0.0    65   86.3     7    122.1     9.0    999.0   0.00  
 209   21:40    0.0    64   88.4     5    115.5     7.2    999.0   0.00  
 209   21:50    0.0    62   94.2     6    118.9     6.6    999.0   0.00  
 209   22:00    0.0    63   93.0     6    120.2     8.4    999.0   0.00  
 209   22:10    0.0    63   90.9     4    120.3     6.0    999.0   0.00  
 209   22:20    0.0    62   95.3     4    118.1     7.2    999.0   0.00  
 209   22:30    0.0    62   96.5     7    104.6     8.4    999.0   0.00  
 209   22:40    0.0    62   97.1     6    108.0     7.8    999.0   0.00  
 209   22:50    0.0    61   97.3     5    107.2     7.8    999.0   0.00  
 209   23:00    0.0    61   97.5     4    109.0     6.0    999.0   0.00  
 209   23:10    0.0    61   97.6     1    113.7     5.4    999.0   0.00  
 209   23:20    0.0    61   97.7     2    115.7     4.2    999.0   0.00  
 209   23:30    0.0    61   97.7     1     71.8     4.2    999.0   0.00  
 209   23:40    0.0    61   97.8     3     33.5     4.2    999.0   0.00  
 209   23:50    0.0    61   97.9     3     38.7     4.8    999.0   0.00  
 210    0:00    0.0    61   97.9     3     29.3     5.4    999.0   0.00  
 210    0:10    0.0    61   98.0     2     44.9     4.2    999.0   0.00  
 210    0:20    0.0    61   98.0     2    326.7     4.8    999.0   0.00  
 210    0:30    0.0    61   98.1     2     24.8     3.6    999.0   0.00  
 210    0:40    0.0    61   98.1     1    302.1     2.4    999.0   0.00  
 210    0:50    0.0    61   98.2     2    285.5     3.6    999.0   0.00  
 210    1:00    0.0    61   98.2     1    283.2     3.6    999.0   0.00  
 210    1:10    0.0    61   98.2     3     41.2     4.8    999.0   0.00  
 210    1:20    0.0    61   98.3     4     38.9     7.2    999.0   0.00  
 210    1:30    0.0    61   98.3     3     17.3     4.2    999.0   0.00  
 210    1:40    0.0    61   98.3     4     11.3     6.6    999.0   0.00  
 210    1:50    0.0    61   98.4     3     37.0     6.0    999.0   0.00  
 210    2:00    0.0    61   98.4     4     33.8     7.2    999.0   0.00  
 210    2:10    0.0    61   98.4     3     15.7     5.4    999.0   0.00  
 210    2:20    0.0    61   98.4     4     69.0     6.0    999.0   0.00  
 210    2:30    0.0    61   98.4     5     66.5     7.2    999.0   0.00  
 210    2:40    0.0    61   98.5     5     72.4     7.2    999.0   0.00  
 210    2:50    0.0    61   98.5     3     63.4     6.0    999.0   0.00  
 210    3:00    0.0    61   98.5     2     65.9     6.0    999.0   0.00  
 210    3:10    0.0    61   98.5     3     48.0     7.2    999.0   0.00  
 210    3:20    0.0    61   98.6     3     38.2     5.4    999.0   0.00  
 210    3:30    0.0    61   98.6     5     52.4     6.6    999.0   0.00  
 210    3:40    0.0    61   98.6     4     50.0     6.0    999.0   0.00  
 210    3:50    0.0    61   98.6     5     52.3     6.6    999.0   0.00  
 210    4:00    0.0    61   98.6     3     58.3     4.2    999.0   0.00  
 210    4:10    0.0    61   98.7     4     70.8     6.0    999.0   0.00  
 210    4:20    0.0    61   98.7     3     62.5     4.8    999.0   0.00  
 210    4:30    0.0    61   98.7     6     68.2     9.6    999.0   0.00  
 210    4:40    0.0    61   98.7     3     66.3     4.8    999.0   0.00  
 210    4:50    0.0    61   98.7     1     73.9     4.2    999.0   0.00  
 210    5:00    0.0    61   98.7     2     59.7     3.6    999.0   0.00  
 210    5:10    3.0    61   98.7     2     78.1     6.6    999.0   0.00  
 210    5:20    6.0    61   98.8     1    228.8     4.2    999.0   0.00  
 210    5:30    7.0    61   98.8     2     42.2     4.8    999.0   0.00  
 210    5:40   13.0    61   98.8     2     39.4     4.8    999.0   0.00  
 210    5:50   21.0    61   98.8     1     41.1     4.2    999.0   0.00  
 210    6:00   30.0    60   98.8     2    310.2     4.2    999.0   0.00  
 210    6:10   36.0    61   98.8     2      1.4     4.2    999.0   0.00  
 210    6:20   42.0    61   98.8     1    356.6     3.6    999.0   0.00  
 210    6:30   57.0    61   98.8     1     79.9     4.8    999.0   0.00  
 210    6:40   66.0    61   98.8     3     80.6     6.6    999.0   0.00  
 210    6:50   67.0    61   98.8     4     87.6     7.8    999.0   0.00  
 210    7:00   85.0    62   98.8     2     38.3     4.8    999.0   0.00  
 210    7:10   96.0    62   98.8     3     60.0     5.4    999.0   0.00  
 210    7:20   84.0    62   98.8     4     77.7     6.0    999.0   0.00  
 210    7:30  111.0    62   98.8     1     79.8     4.2    999.0   0.00  

Return to Whitleys Peak graphs page.


Western Regional Climate Center,wrcc@dri.edu